Plymouth, Indiana
Current Conditions -  °F | °C
As of 2:55 AM on Friday 24 Oct 2014 (Local Time) from KOXI Reporting Station
Overcast Overcast  
Wind Chill: 49°   Ceiling: 4300
Heat Index: 49°   Visibility: 10mi
Dew Point: 41°   Wind: 3mph
Humidity: 75%   Direction: 170°S
Pressure: 30.08"   Gusts: NA
Location:  41.34°N, 86.31°W
Report Text: KOXI 240655Z AUTO 17003KT 10SM BKN043 OVC049 10/05 A3008 RMK AO1 T00950052
Loading
Personal Weather Stations






























Interactive Weather Map
Tropical Storm Tracking
New forecast layout! Learn more

10-Day Weather Forecast

Advertisements
Track Severe Weather on mobile